createdAt,value
2022-12-08T00:02:00.915Z,100159.59
2022-12-08T00:04:30.606Z,100153.16
2022-12-08T00:07:16.457Z,100153.16
2022-12-08T00:09:46.743Z,100150.59
2022-12-08T00:12:18.106Z,100152.09
2022-12-08T00:14:47.656Z,100155.44
2022-12-08T00:17:17.080Z,100160.53
2022-12-08T00:19:47.181Z,100168.84
2022-12-08T00:22:15.333Z,100162.03
2022-12-08T00:24:45.714Z,100173.44
2022-12-08T00:27:15.722Z,100178.53
2022-12-08T00:29:46.399Z,100174.19
2022-12-08T00:32:14.044Z,100168.84
2022-12-08T00:34:45.412Z,100171.81
2022-12-08T00:37:12.499Z,100179.94
2022-12-08T00:39:39.756Z,100175.53
2022-12-08T00:42:12.494Z,100176.59
2022-12-08T00:44:45.071Z,100181.91
2022-12-08T00:47:13.619Z,100198.00
2022-12-08T00:49:41.385Z,100195.44
2022-12-08T00:52:09.140Z,100186.56
2022-12-08T00:54:36.550Z,100190.47
2022-12-08T00:57:06.330Z,100192.72
2022-12-08T00:59:33.359Z,100187.13
2022-12-08T01:02:02.814Z,100194.88
2022-12-08T01:04:33.043Z,100197.28
2022-12-08T01:07:00.323Z,100191.53
2022-12-08T01:09:27.531Z,100201.63
2022-12-08T01:11:54.913Z,100209.09
2022-12-08T01:14:22.574Z,100211.72
2022-12-08T01:16:49.846Z,100215.88
2022-12-08T01:19:19.927Z,100206.84
2022-12-08T01:21:50.128Z,100210.41
2022-12-08T01:24:21.601Z,100211.84
2022-12-08T01:26:50.627Z,100206.84
2022-12-08T01:29:18.419Z,100206.00
2022-12-08T01:31:45.635Z,100215.44
2022-12-08T01:34:13.153Z,100210.03
2022-12-08T01:36:44.447Z,100215.66
2022-12-08T01:39:17.161Z,100214.00
2022-12-08T01:41:45.543Z,100208.47
2022-12-08T01:44:12.769Z,100216.31
2022-12-08T01:46:43.136Z,100216.84
2022-12-08T01:49:18.790Z,100221.47
2022-12-08T01:52:05.053Z,100217.22
2022-12-08T01:54:42.363Z,100215.81
2022-12-08T01:57:41.555Z,100221.84
2022-12-08T02:00:16.924Z,100221.84
2022-12-08T02:03:00.294Z,100224.47
2022-12-08T02:05:37.873Z,100228.78
2022-12-08T02:08:12.764Z,100222.84
2022-12-08T02:10:45.329Z,100221.63
2022-12-08T02:13:18.933Z,100228.41
2022-12-08T02:16:09.195Z,100227.22
2022-12-08T02:19:22.447Z,100231.78
2022-12-08T02:22:24.961Z,100234.53
2022-12-08T02:25:12.075Z,100243.75
2022-12-08T02:28:00.167Z,100251.97
2022-12-08T02:31:14.112Z,100249.41
2022-12-08T02:34:24.935Z,100256.31
2022-12-08T02:36:59.552Z,100266.28
2022-12-08T02:39:56.935Z,100270.13
2022-12-08T02:42:40.218Z,100272.72
2022-12-08T02:45:23.081Z,100274.00
2022-12-08T02:47:53.052Z,100274.13
2022-12-08T02:50:20.614Z,100279.00
2022-12-08T02:52:49.053Z,100276.34
2022-12-08T02:55:31.842Z,100276.53
2022-12-08T02:58:07.745Z,100276.28
2022-12-08T03:01:07.616Z,100286.72
2022-12-08T03:03:44.031Z,100290.28
2022-12-08T03:06:51.548Z,100298.00
2022-12-08T03:09:44.920Z,100300.97
2022-12-08T03:12:39.825Z,100305.72
2022-12-08T03:15:13.684Z,100303.22
2022-12-08T03:17:50.352Z,100305.50
2022-12-08T03:20:26.108Z,100307.56
2022-12-08T03:22:57.661Z,100304.94
2022-12-08T03:25:32.067Z,100294.13
2022-12-08T03:28:00.413Z,100296.25
2022-12-08T03:30:32.326Z,100300.66
2022-12-08T03:33:14.466Z,100311.38
2022-12-08T03:35:43.078Z,100311.44
2022-12-08T03:38:14.877Z,100301.81
2022-12-08T03:41:05.080Z,100307.63
2022-12-08T03:43:32.433Z,100310.44
2022-12-08T03:45:59.981Z,100312.16
2022-12-08T03:48:27.289Z,100315.75
2022-12-08T03:50:54.463Z,100325.88
2022-12-08T03:53:21.599Z,100321.19
2022-12-08T03:55:48.771Z,100325.31
2022-12-08T03:58:16.388Z,100325.78
2022-12-08T04:00:48.516Z,100330.94
2022-12-08T04:03:15.624Z,100332.50
2022-12-08T04:05:45.188Z,100339.63
2022-12-08T04:08:13.153Z,100329.66
2022-12-08T04:10:42.498Z,100329.66
2022-12-08T04:13:12.104Z,100336.84
2022-12-08T04:15:44.323Z,100337.03
2022-12-08T04:18:11.412Z,100339.53
2022-12-08T04:20:44.551Z,100333.06
2022-12-08T04:23:13.193Z,100338.47
2022-12-08T04:25:40.770Z,100333.19
2022-12-08T04:28:07.986Z,100334.06
2022-12-08T04:30:35.533Z,100338.84
2022-12-08T04:33:03.169Z,100340.22
2022-12-08T04:35:34.205Z,100335.72
2022-12-08T04:38:04.476Z,100336.72
2022-12-08T04:40:35.643Z,100343.41
2022-12-08T04:43:06.445Z,100341.59
2022-12-08T04:45:46.513Z,100341.72
2022-12-08T04:48:14.077Z,100340.22
2022-12-08T04:50:44.655Z,100344.91
2022-12-08T04:53:13.236Z,100344.28
2022-12-08T04:55:44.919Z,100332.03
2022-12-08T04:58:18.183Z,100337.66
2022-12-08T05:00:46.078Z,100329.03
2022-12-08T05:03:28.293Z,100323.00
2022-12-08T05:05:56.260Z,100329.38
2022-12-08T05:08:23.470Z,100315.56
2022-12-08T05:10:50.671Z,100323.66
2022-12-08T05:13:17.747Z,100326.06
2022-12-08T05:15:45.031Z,100330.91
2022-12-08T05:18:12.253Z,100319.69
2022-12-08T05:20:39.901Z,100326.50
2022-12-08T05:23:12.981Z,100327.47
2022-12-08T05:25:40.193Z,100331.59
2022-12-08T05:28:39.488Z,100327.75
2022-12-08T05:30:54.421Z,100332.94
2022-12-08T05:33:24.059Z,100328.84
2022-12-08T05:35:51.165Z,100328.19
2022-12-08T05:38:18.461Z,100331.34
2022-12-08T05:40:47.877Z,100325.47
2022-12-08T05:43:15.348Z,100327.59
2022-12-08T05:45:42.654Z,100318.59
2022-12-08T05:48:16.148Z,100321.84
2022-12-08T05:50:50.699Z,100324.34
2022-12-08T05:53:20.525Z,100332.56
2022-12-08T05:55:51.387Z,100338.34
2022-12-08T05:58:21.718Z,100334.41
2022-12-08T06:00:50.848Z,100335.34
2022-12-08T06:03:19.941Z,100339.75
2022-12-08T06:05:48.099Z,100339.63
2022-12-08T06:08:15.948Z,100337.84
2022-12-08T06:10:45.968Z,100337.41
2022-12-08T06:13:16.597Z,100346.34
2022-12-08T06:15:43.759Z,100347.41
2022-12-08T06:18:12.075Z,100347.44
2022-12-08T06:20:39.201Z,100357.06
2022-12-08T06:23:07.252Z,100358.00
2022-12-08T06:25:34.685Z,100355.38
2022-12-08T06:28:01.955Z,100352.63
2022-12-08T06:30:29.287Z,100355.94
2022-12-08T06:32:56.398Z,100359.22
2022-12-08T06:35:23.488Z,100356.09
2022-12-08T06:37:51.848Z,100359.94
2022-12-08T06:40:18.998Z,100366.63
2022-12-08T06:43:00.024Z,100362.53
2022-12-08T06:45:37.831Z,100372.44
2022-12-08T06:48:18.660Z,100375.13
2022-12-08T06:50:45.967Z,100374.06
2022-12-08T06:53:15.240Z,100374.69
2022-12-08T06:56:02.566Z,100374.59
2022-12-08T06:58:32.374Z,100375.47
2022-12-08T07:01:09.756Z,100372.97
2022-12-08T07:03:38.774Z,100371.47
2022-12-08T07:06:06.709Z,100373.38
2022-12-08T07:08:34.757Z,100378.72
2022-12-08T07:11:09.100Z,100369.63
2022-12-08T07:13:36.292Z,100375.69
2022-12-08T07:16:08.008Z,100377.06
2022-12-08T07:18:39.033Z,100375.72
2022-12-08T07:21:12.355Z,100369.00
2022-12-08T07:23:39.601Z,100371.84
2022-12-08T07:26:11.904Z,100375.53
2022-12-08T07:28:41.463Z,100374.78
2022-12-08T07:31:18.100Z,100382.81
2022-12-08T07:33:45.465Z,100375.16
2022-12-08T07:36:13.057Z,100377.22
2022-12-08T07:38:40.630Z,100378.03
2022-12-08T07:41:19.649Z,100381.63
2022-12-08T07:43:46.983Z,100378.22
2022-12-08T07:46:20.954Z,100377.03
2022-12-08T07:48:48.316Z,100380.50
2022-12-08T07:51:16.954Z,100382.22
2022-12-08T07:53:53.383Z,100380.81
2022-12-08T07:56:21.955Z,100381.94
2022-12-08T07:58:49.012Z,100376.41
2022-12-08T08:01:45.753Z,100373.41
2022-12-08T08:04:12.933Z,100382.38
2022-12-08T08:06:40.109Z,100380.00
2022-12-08T08:09:07.249Z,100381.66
2022-12-08T08:11:34.384Z,100377.66
2022-12-08T08:14:01.640Z,100383.38
2022-12-08T08:16:33.496Z,100382.88
2022-12-08T08:19:03.822Z,100382.25
2022-12-08T08:21:45.409Z,100383.41
2022-12-08T08:24:13.231Z,100385.63
2022-12-08T08:26:40.311Z,100368.00
2022-12-08T08:29:09.566Z,100375.00
2022-12-08T08:31:36.669Z,100371.75
2022-12-08T08:34:06.511Z,100365.97
2022-12-08T08:36:34.056Z,100361.63
2022-12-08T08:39:01.268Z,100369.25
2022-12-08T08:41:28.334Z,100364.59
2022-12-08T08:43:55.563Z,100374.91
2022-12-08T08:46:22.835Z,100368.56
2022-12-08T08:48:49.966Z,100366.47
2022-12-08T08:51:17.116Z,100361.97
2022-12-08T08:53:44.531Z,100366.06
2022-12-08T08:56:20.781Z,100369.38
2022-12-08T08:58:50.238Z,100360.03
2022-12-08T09:01:25.906Z,100358.97
2022-12-08T09:03:56.488Z,100363.94
2022-12-08T09:06:25.020Z,100358.72
2022-12-08T09:08:52.150Z,100361.25
2022-12-08T09:11:23.436Z,100361.97
2022-12-08T09:13:52.093Z,100356.91
2022-12-08T09:16:22.807Z,100350.47
2022-12-08T09:18:50.090Z,100356.25
2022-12-08T09:21:24.130Z,100349.66
2022-12-08T09:23:59.708Z,100350.56
2022-12-08T09:26:28.393Z,100342.44
2022-12-08T09:28:56.627Z,100339.91
2022-12-08T09:31:24.800Z,100335.19
2022-12-08T09:33:55.023Z,100334.22
2022-12-08T09:36:22.590Z,100330.91
2022-12-08T09:38:51.198Z,100331.78
2022-12-08T09:42:09.440Z,100329.56
2022-12-08T09:45:28.141Z,100319.53
2022-12-08T09:48:14.247Z,100316.38
2022-12-08T09:50:55.273Z,100315.28
2022-12-08T09:53:24.899Z,100310.31
2022-12-08T09:56:07.062Z,100301.97
2022-12-08T09:58:55.154Z,100294.13
2022-12-08T10:01:26.796Z,100291.41
2022-12-08T10:03:56.038Z,100295.53
2022-12-08T10:06:50.759Z,100298.00
2022-12-08T10:10:00.384Z,100287.88
2022-12-08T10:12:39.568Z,100288.13
2022-12-08T10:15:52.967Z,100276.59
2022-12-08T10:18:27.345Z,100271.72
2022-12-08T10:21:05.495Z,100263.44
2022-12-08T10:23:38.509Z,100258.13
2022-12-08T10:26:12.538Z,100260.09
2022-12-08T10:28:45.152Z,100247.22
2022-12-08T10:31:25.113Z,100248.63
2022-12-08T10:34:00.585Z,100251.34
2022-12-08T10:36:47.353Z,100247.69
2022-12-08T10:39:44.030Z,100247.84
2022-12-08T10:42:14.243Z,100248.75
2022-12-08T10:45:03.302Z,100237.66
2022-12-08T10:47:35.903Z,100236.31
2022-12-08T10:50:35.612Z,100237.91
2022-12-08T10:53:08.716Z,100240.81
2022-12-08T10:56:01.698Z,100236.00
2022-12-08T10:58:42.792Z,100233.78
2022-12-08T11:01:20.573Z,100233.38
2022-12-08T11:03:53.018Z,100235.31
2022-12-08T11:06:30.366Z,100231.25
2022-12-08T11:09:05.458Z,100228.56
2022-12-08T11:12:09.956Z,100219.47
2022-12-08T11:14:43.050Z,100221.28
2022-12-08T11:17:26.277Z,100221.84
2022-12-08T11:20:20.983Z,100214.16
2022-12-08T11:22:56.361Z,100220.69
2022-12-08T11:25:25.806Z,100219.81
2022-12-08T11:28:02.517Z,100217.72
2022-12-08T11:30:42.075Z,100220.44
2022-12-08T11:33:28.539Z,100223.63
2022-12-08T11:36:07.702Z,100223.41
2022-12-08T11:38:39.520Z,100226.47
2022-12-08T11:41:16.434Z,100217.00
2022-12-08T11:44:14.587Z,100231.22
2022-12-08T11:46:54.246Z,100219.09
2022-12-08T11:49:21.450Z,100219.91
2022-12-08T11:52:02.739Z,100230.06
2022-12-08T11:54:46.895Z,100213.94
2022-12-08T11:57:20.848Z,100210.56
2022-12-08T11:59:54.557Z,100215.03
2022-12-08T12:02:32.055Z,100210.56
2022-12-08T12:05:03.408Z,100208.59
2022-12-08T12:08:06.586Z,100203.38
2022-12-08T12:10:52.755Z,100208.47
2022-12-08T12:13:49.984Z,100204.22
2022-12-08T12:16:50.525Z,100202.63
2022-12-08T12:19:20.518Z,100207.75
2022-12-08T12:21:55.408Z,100199.34
2022-12-08T12:24:40.287Z,100199.94
2022-12-08T12:27:26.768Z,100204.91
2022-12-08T12:30:00.216Z,100198.53
2022-12-08T12:32:49.061Z,100199.91
2022-12-08T12:35:36.093Z,100188.69
2022-12-08T12:38:38.515Z,100188.22
2022-12-08T12:41:06.268Z,100183.59
2022-12-08T12:43:58.126Z,100181.25
2022-12-08T12:46:28.212Z,100182.38
2022-12-08T12:49:40.017Z,100184.88
2022-12-08T12:52:16.278Z,100182.28
2022-12-08T12:54:52.024Z,100179.88
2022-12-08T12:57:18.876Z,100177.22
2022-12-08T12:59:55.145Z,100173.28
2022-12-08T13:02:31.384Z,100174.25
2022-12-08T13:05:28.967Z,100173.47
2022-12-08T13:08:07.901Z,100180.03
2022-12-08T13:10:40.661Z,100170.56
2022-12-08T13:13:10.749Z,100172.59
2022-12-08T13:16:07.616Z,100181.94
2022-12-08T13:18:50.737Z,100182.75
2022-12-08T13:21:22.137Z,100181.22
2022-12-08T13:24:08.880Z,100177.50
2022-12-08T13:26:48.886Z,100192.00
2022-12-08T13:29:26.829Z,100189.31
2022-12-08T13:31:54.768Z,100190.50
2022-12-08T13:34:41.731Z,100187.03
2022-12-08T13:37:11.753Z,100187.72
2022-12-08T13:39:40.024Z,100188.03
2022-12-08T13:42:16.862Z,100181.53
2022-12-08T13:48:36.717Z,100180.47
2022-12-08T13:57:36.934Z,100173.28
2022-12-08T14:00:20.291Z,100168.69
2022-12-08T14:02:50.692Z,100168.09
2022-12-08T14:05:40.686Z,100160.63
2022-12-08T14:08:58.386Z,100157.97
2022-12-08T14:11:42.910Z,100167.03
2022-12-08T14:15:01.799Z,100164.41
2022-12-08T14:17:26.214Z,100162.97
2022-12-08T14:20:20.224Z,100160.84
2022-12-08T14:22:50.190Z,100157.31
2022-12-08T14:25:18.496Z,100161.88
2022-12-08T14:27:46.135Z,100160.19
2022-12-08T14:30:16.312Z,100153.38
2022-12-08T14:32:51.676Z,100158.94
2022-12-08T14:35:31.676Z,100162.81
2022-12-08T14:38:01.957Z,100162.88
2022-12-08T14:40:43.790Z,100174.88
2022-12-08T14:43:14.411Z,100167.19
2022-12-08T14:45:43.926Z,100172.59
2022-12-08T14:48:31.296Z,100177.25
2022-12-08T14:51:04.683Z,100183.75
2022-12-08T14:53:40.438Z,100185.53
2022-12-08T14:56:36.440Z,100180.81
2022-12-08T14:59:12.246Z,100187.22
2022-12-08T15:02:04.361Z,100186.19
2022-12-08T15:04:31.540Z,100195.13
2022-12-08T15:07:07.062Z,100189.69
2022-12-08T15:09:48.953Z,100190.00
2022-12-08T15:12:16.064Z,100191.34
2022-12-08T15:15:10.567Z,100187.81
2022-12-08T15:17:40.482Z,100189.06
2022-12-08T15:20:34.557Z,100185.34
2022-12-08T15:23:03.143Z,100169.63
2022-12-08T15:25:30.496Z,100169.38
2022-12-08T15:27:58.181Z,100169.22
2022-12-08T15:30:28.858Z,100167.78
2022-12-08T15:32:56.518Z,100165.66
2022-12-08T15:35:23.826Z,100166.91
2022-12-08T15:37:50.929Z,100167.41
2022-12-08T15:40:23.087Z,100168.09
2022-12-08T15:42:50.093Z,100153.09
2022-12-08T15:45:17.926Z,100153.88
2022-12-08T15:47:45.833Z,100164.56
2022-12-08T15:50:21.987Z,100176.16
2022-12-08T15:52:50.387Z,100165.56
2022-12-08T15:55:22.269Z,100156.91
2022-12-08T16:00:57.613Z,100154.53
2022-12-08T16:07:12.456Z,100152.75
2022-12-08T16:09:19.128Z,100155.63
2022-12-08T16:12:08.132Z,100156.78
2022-12-08T16:17:29.240Z,100150.09
2022-12-08T16:19:56.623Z,100159.38
2022-12-08T16:25:20.589Z,100149.97
2022-12-08T16:28:03.059Z,100149.03
2022-12-08T16:30:36.124Z,100154.19
2022-12-08T16:33:03.455Z,100153.69
2022-12-08T16:35:30.845Z,100150.56
2022-12-08T16:37:58.097Z,100147.25
2022-12-08T16:40:52.253Z,100146.69
2022-12-08T16:43:19.295Z,100149.34
2022-12-08T16:45:46.402Z,100144.22
2022-12-08T16:48:14.952Z,100143.66
2022-12-08T16:50:45.754Z,100144.22
2022-12-08T16:53:13.702Z,100139.84
2022-12-08T16:55:47.674Z,100149.78
2022-12-08T16:58:16.453Z,100144.53
2022-12-08T17:00:46.094Z,100138.22
2022-12-08T17:03:15.680Z,100145.16
2022-12-08T17:05:45.878Z,100142.19
2022-12-08T17:08:14.103Z,100131.56
2022-12-08T17:10:41.974Z,100150.63
2022-12-08T17:13:13.134Z,100140.25
2022-12-08T17:15:40.751Z,100141.44
2022-12-08T17:18:07.834Z,100138.66
2022-12-08T17:20:36.280Z,100146.03
2022-12-08T17:23:06.381Z,100146.50
2022-12-08T17:25:33.557Z,100139.75
2022-12-08T17:28:00.694Z,100145.50
2022-12-08T17:30:27.912Z,100145.09
2022-12-08T17:32:54.929Z,100140.16
2022-12-08T17:35:24.534Z,100138.41
2022-12-08T17:37:51.610Z,100138.00
2022-12-08T17:40:18.771Z,100141.44
2022-12-08T17:42:46.441Z,100131.81
2022-12-08T17:45:13.507Z,100125.41
2022-12-08T17:47:40.669Z,100125.41
2022-12-08T17:50:08.929Z,100129.13
2022-12-08T17:52:38.230Z,100132.34
2022-12-08T17:55:05.856Z,100134.63
2022-12-08T17:57:32.987Z,100142.59
2022-12-08T17:59:59.982Z,100132.41
2022-12-08T18:02:27.167Z,100130.06
2022-12-08T18:04:54.280Z,100124.50
2022-12-08T18:07:23.947Z,100134.59
2022-12-08T18:09:51.637Z,100130.47
2022-12-08T18:12:23.414Z,100125.34
2022-12-08T18:14:51.763Z,100131.84
2022-12-08T18:17:20.690Z,100126.97
2022-12-08T18:19:47.866Z,100120.00
2022-12-08T18:22:16.037Z,100131.41
2022-12-08T18:24:43.313Z,100121.44
2022-12-08T18:27:10.452Z,100117.03
2022-12-08T18:29:37.586Z,100131.88
2022-12-08T18:32:04.699Z,100120.03
2022-12-08T18:34:34.445Z,100136.22
2022-12-08T18:37:01.664Z,100128.44
2022-12-08T18:39:32.392Z,100135.69
2022-12-08T18:42:02.659Z,100140.53
2022-12-08T18:44:29.955Z,100151.81
2022-12-08T18:46:59.069Z,100147.84
2022-12-08T18:49:26.674Z,100157.88
2022-12-08T18:51:53.817Z,100156.72
2022-12-08T18:54:27.691Z,100162.97
2022-12-08T18:57:05.572Z,100158.44
2022-12-08T18:59:32.986Z,100164.41
2022-12-08T19:02:00.231Z,100168.84
2022-12-08T19:04:28.783Z,100162.72
2022-12-08T19:06:57.462Z,100165.41
2022-12-08T19:09:26.891Z,100168.66
2022-12-08T19:11:56.618Z,100167.91
2022-12-08T19:14:28.488Z,100171.16
2022-12-08T19:16:57.854Z,100171.81
2022-12-08T19:19:26.174Z,100176.59
2022-12-08T19:21:53.885Z,100188.94
2022-12-08T19:24:21.123Z,100182.78
2022-12-08T19:26:48.186Z,100181.84
2022-12-08T19:29:15.484Z,100180.00
2022-12-08T19:31:42.913Z,100186.25
2022-12-08T19:34:14.380Z,100178.69
2022-12-08T19:36:43.079Z,100184.00
2022-12-08T19:39:38.820Z,100187.47
2022-12-08T19:42:40.541Z,100188.88
2022-12-08T19:45:11.919Z,100195.47
2022-12-08T19:47:42.360Z,100190.81
2022-12-08T19:50:31.134Z,100189.16
2022-12-08T19:52:59.070Z,100189.16
2022-12-08T19:55:27.494Z,100188.53
2022-12-08T19:57:56.770Z,100199.75
2022-12-08T20:00:26.852Z,100202.38
2022-12-08T20:02:57.252Z,100201.69
2022-12-08T20:05:24.764Z,100203.81
2022-12-08T20:07:55.674Z,100204.09
2022-12-08T20:10:30.326Z,100202.47
2022-12-08T20:13:19.639Z,100202.75
2022-12-08T20:15:47.484Z,100212.06
2022-12-08T20:18:15.968Z,100200.97
2022-12-08T20:20:47.283Z,100210.44
2022-12-08T20:23:24.498Z,100211.63
2022-12-08T20:25:51.590Z,100212.66
2022-12-08T20:28:19.211Z,100204.03
2022-12-08T20:30:52.013Z,100210.28
2022-12-08T20:33:21.752Z,100211.34
2022-12-08T20:35:59.282Z,100219.00
2022-12-08T20:38:27.513Z,100229.53
2022-12-08T20:41:00.339Z,100226.03
2022-12-08T20:43:30.567Z,100232.22
2022-12-08T20:45:57.625Z,100229.03
2022-12-08T20:48:25.080Z,100232.88
2022-12-08T20:50:55.089Z,100227.41
2022-12-08T20:53:22.279Z,100237.78
2022-12-08T20:55:49.411Z,100234.31
2022-12-08T20:58:16.510Z,100235.88
2022-12-08T21:00:43.768Z,100240.09
2022-12-08T21:03:13.685Z,100241.47
2022-12-08T21:05:41.172Z,100251.38
2022-12-08T21:08:08.425Z,100243.72
2022-12-08T21:10:39.358Z,100241.19
2022-12-08T21:13:10.685Z,100242.50
2022-12-08T21:15:37.952Z,100258.47
2022-12-08T21:18:05.352Z,100253.88
2022-12-08T21:20:32.719Z,100258.41
2022-12-08T21:23:00.632Z,100256.50
2022-12-08T21:25:27.916Z,100268.06
2022-12-08T21:27:55.347Z,100267.47
2022-12-08T21:30:23.009Z,100270.06
2022-12-08T21:32:50.284Z,100258.63
2022-12-08T21:35:17.714Z,100264.38
2022-12-08T21:37:44.804Z,100269.31
2022-12-08T21:40:13.089Z,100262.56
2022-12-08T21:42:43.864Z,100269.59
2022-12-08T21:45:20.286Z,100269.00
2022-12-08T21:47:49.538Z,100265.19
2022-12-08T21:50:17.798Z,100269.59
2022-12-08T21:52:48.263Z,100263.81
2022-12-08T21:55:19.149Z,100249.19
2022-12-08T21:57:48.863Z,100243.97
2022-12-08T22:00:17.695Z,100245.81
2022-12-08T22:02:48.208Z,100240.78
2022-12-08T22:05:15.744Z,100249.59
2022-12-08T22:07:43.383Z,100250.78
2022-12-08T22:10:11.793Z,100254.56
2022-12-08T22:12:42.089Z,100254.84
2022-12-08T22:15:13.453Z,100262.41
2022-12-08T22:17:43.657Z,100260.63
2022-12-08T22:20:14.703Z,100261.75
2022-12-08T22:22:42.302Z,100266.34
2022-12-08T22:25:22.234Z,100268.97
2022-12-08T22:27:49.355Z,100263.56
2022-12-08T22:30:18.772Z,100270.13
2022-12-08T22:32:46.707Z,100265.31
2022-12-08T22:35:13.824Z,100275.31
2022-12-08T22:37:40.946Z,100274.94
2022-12-08T22:40:09.281Z,100273.19
2022-12-08T22:42:36.644Z,100272.84
2022-12-08T22:45:04.020Z,100281.88
2022-12-08T22:47:31.234Z,100279.06
2022-12-08T22:49:58.365Z,100277.03
2022-12-08T22:52:25.846Z,100279.41
2022-12-08T22:54:53.051Z,100277.28
2022-12-08T22:57:20.433Z,100271.44
2022-12-08T22:59:47.457Z,100271.63
2022-12-08T23:02:14.760Z,100274.59
2022-12-08T23:04:46.423Z,100268.63
2022-12-08T23:07:13.704Z,100285.91
2022-12-08T23:09:43.614Z,100288.66
2022-12-08T23:12:13.228Z,100281.47
2022-12-08T23:14:40.610Z,100282.75
2022-12-08T23:17:08.206Z,100283.34
2022-12-08T23:19:41.294Z,100281.41
2022-12-08T23:22:10.622Z,100282.84
2022-12-08T23:24:37.766Z,100277.03
2022-12-08T23:27:05.095Z,100283.44
2022-12-08T23:29:32.426Z,100285.50
2022-12-08T23:31:59.956Z,100285.16
2022-12-08T23:34:27.240Z,100276.38
2022-12-08T23:36:54.767Z,100283.63
2022-12-08T23:39:24.749Z,100284.41
2022-12-08T23:41:52.379Z,100281.31
2022-12-08T23:44:22.357Z,100290.38
2022-12-08T23:46:49.705Z,100283.03
2022-12-08T23:49:21.605Z,100288.56
2022-12-08T23:51:49.012Z,100291.38
2022-12-08T23:54:16.986Z,100288.75
2022-12-08T23:56:44.480Z,100289.94
2022-12-08T23:59:11.573Z,100283.69
